EKAT weather

Anholt Airport
Anholt, Central Jutland, Denmark

Public forecast

Using degrees Celsius for public forecast. Weather courtesy of forecast.io.

Closest aviation weather report (METAR) to Anholt Airport

Closest report is Aarhus Airport, 39.2 nm (72.6 km) SW. Retrieved 2019/10/16 06:20 UTC (35 minutes ago):

EKAH 160620Z AUTO 00000KT 0450NDV R10R/0650N R28L/0800N -RA FG VV001 12/12 Q1005

Closest aviation forecast (TAF) to Anholt Airport

Closest forecast is Aarhus Airport, 39.2 nm (72.6 km) SW. Retrieved 2019/10/16 06:31 UTC (24 minutes ago):

TAF EKAH 160519Z 1606/1706 30005KT 0200 FG VV001 BECMG 1606/1608 6000 NSW BKN015 TEMPO 1608/1616 2000 RA BR BKN005 FEW030CB TEMPO 1616/1621 3000 BR BKN012 PROB40 1621/1704 0500 FG BKN002 BECMG 1704/1706 2000 RADZ BR BKN005